Time;durP1;ratioP1;P1;durP2;ratioP2;P2;SDS_P1;SDS_P2;PMS_P1;PMS_P2;Temp;Humidity;BMP_temperature;BMP_pressure;BME280_temperature;BME280_humidity;BME280_pressure;Samples;Min_cycle;Max_cycle;Signal;HPM_P1;HPM_P2
2022/01/10 00:10:19;;;;;;;25.10;10.13;;;5.90;99.90;;;;;;5016758;28;20281;-96
2022/01/10 00:12:45;;;;;;;25.07;10.67;;;5.80;99.90;;;;;;4982700;28;20215;-96
2022/01/10 00:15:12;;;;;;;26.00;10.67;;;5.80;99.90;;;;;;4963667;28;20280;-94
2022/01/10 00:17:38;;;;;;;21.13;10.37;;;5.60;99.90;;;;;;4975152;28;20908;-96
2022/01/10 00:20:06;;;;;;;26.30;11.20;;;5.80;99.90;;;;;;4977938;28;20220;-96
2022/01/10 00:22:33;;;;;;;22.97;10.30;;;5.70;99.90;;;;;;4976663;28;20229;-95
2022/01/10 00:24:59;;;;;;;18.60;10.20;;;5.70;99.90;;;;;;4981050;28;20178;-95
2022/01/10 00:27:24;;;;;;;26.10;10.73;;;5.60;99.90;;;;;;4982416;28;20260;-96
2022/01/10 00:29:50;;;;;;;26.33;10.73;;;5.80;99.90;;;;;;4983456;28;20185;-95
2022/01/10 00:32:17;;;;;;;28.37;14.40;;;6.00;99.90;;;;;;4981664;28;20909;-96
2022/01/10 00:34:45;;;;;;;23.17;10.63;;;5.80;99.90;;;;;;4979998;28;20178;-96
2022/01/10 00:37:14;;;;;;;23.73;15.40;;;5.80;99.90;;;;;;4982543;28;20201;-96
2022/01/10 00:39:40;;;;;;;29.97;10.93;;;5.70;99.90;;;;;;4999020;28;20697;-94
2022/01/10 00:42:06;;;;;;;30.87;12.33;;;5.70;99.90;;;;;;4981218;28;20192;-96
2022/01/10 00:44:37;;;;;;;21.87;10.70;;;5.60;99.90;;;;;;4981100;28;20185;-96
2022/01/10 00:47:05;;;;;;;20.73;11.60;;;5.60;99.90;;;;;;5000121;28;20159;-96
2022/01/10 00:49:31;;;;;;;20.30;10.63;;;5.50;99.90;;;;;;5001161;28;20182;-95
2022/01/10 00:51:57;;;;;;;23.67;10.43;;;5.40;99.90;;;;;;5007687;28;20210;-96
2022/01/10 00:54:22;;;;;;;23.07;10.73;;;5.40;99.90;;;;;;4985362;28;20177;-95
2022/01/10 00:56:48;;;;;;;21.53;10.37;;;5.40;99.90;;;;;;4981740;28;20181;-93
2022/01/10 00:59:13;;;;;;;27.53;10.30;;;5.40;99.90;;;;;;4981258;28;20170;-96
2022/01/10 01:01:40;;;;;;;22.67;9.63;;;5.30;99.90;;;;;;4981119;28;20190;-96
2022/01/10 01:04:06;;;;;;;25.40;10.70;;;5.30;99.90;;;;;;4981453;28;20638;-96
2022/01/10 01:06:32;;;;;;;24.23;12.43;;;5.40;99.90;;;;;;4980390;28;20260;-92
2022/01/10 01:09:02;;;;;;;28.60;15.77;;;5.50;99.90;;;;;;4978272;28;20659;-95
2022/01/10 01:11:58;;;;;;;39.27;20.83;;;5.60;99.90;;;;;;4959687;28;20309;-93
2022/01/10 01:14:24;;;;;;;136.40;68.57;;;5.30;99.90;;;;;;4977737;28;20189;-94
2022/01/10 01:16:57;;;;;;;26.97;12.33;;;5.40;99.90;;;;;;4959554;28;20723;-95
2022/01/10 01:24:33;;;;;;;36.30;21.30;;;5.50;99.90;;;;;;4978236;28;20182;-93
2022/01/10 01:27:00;;;;;;;42.50;23.83;;;5.30;99.90;;;;;;4977879;28;20170;-96
2022/01/10 01:29:29;;;;;;;30.50;13.93;;;5.10;99.90;;;;;;4959577;28;20182;-95
2022/01/10 01:31:55;;;;;;;31.20;12.87;;;5.30;99.90;;;;;;4959851;28;20293;-96
2022/01/10 01:34:23;;;;;;;25.23;11.73;;;5.30;99.90;;;;;;4959231;28;20166;-95
2022/01/10 01:36:53;;;;;;;27.97;11.77;;;5.40;99.90;;;;;;4959929;28;20181;-96
2022/01/10 01:39:23;;;;;;;28.27;12.87;;;5.10;99.90;;;;;;4959007;28;20484;-93
2022/01/10 01:41:51;;;;;;;23.97;11.90;;;4.90;99.90;;;;;;4960126;28;20230;-96
2022/01/10 01:44:17;;;;;;;21.43;10.77;;;4.50;99.90;;;;;;4959789;28;20194;-95
2022/01/10 01:46:43;;;;;;;27.37;12.43;;;4.60;99.90;;;;;;4959691;28;20186;-95
2022/01/10 01:49:10;;;;;;;20.70;10.23;;;4.80;99.90;;;;;;4959761;28;20190;-96
2022/01/10 01:51:35;;;;;;;22.80;12.57;;;5.00;99.90;;;;;;4959231;28;20214;-96
2022/01/10 01:54:03;;;;;;;22.10;10.63;;;4.90;99.90;;;;;;4959672;28;20682;-95
2022/01/10 01:56:30;;;;;;;19.63;10.57;;;4.50;99.90;;;;;;4960030;28;20612;-96
2022/01/10 01:58:57;;;;;;;19.77;10.10;;;4.40;99.90;;;;;;4960719;28;20185;-96
2022/01/10 02:01:24;;;;;;;19.80;10.40;;;4.30;99.90;;;;;;4977181;28;20555;-94
2022/01/10 02:03:52;;;;;;;22.97;10.63;;;4.40;99.90;;;;;;4960582;28;20179;-95
2022/01/10 02:06:18;;;;;;;23.57;11.23;;;4.40;99.90;;;;;;4960242;28;20183;-96
2022/01/10 02:08:45;;;;;;;20.63;10.60;;;4.50;99.90;;;;;;4960196;28;20281;-96
2022/01/10 02:11:12;;;;;;;20.53;11.40;;;4.80;99.90;;;;;;4960703;28;20218;-96
2022/01/10 02:13:39;;;;;;;23.27;11.30;;;4.70;99.90;;;;;;4959922;28;20198;-96
2022/01/10 02:16:08;;;;;;;23.27;11.67;;;4.60;99.90;;;;;;4975866;28;20225;-96
2022/01/10 02:18:34;;;;;;;25.20;12.20;;;4.50;99.90;;;;;;4975191;28;20596;-96
2022/01/10 02:21:04;;;;;;;21.67;10.63;;;4.30;99.90;;;;;;4958126;28;20241;-94
2022/01/10 02:23:33;;;;;;;26.53;16.73;;;4.00;99.90;;;;;;4957984;28;20175;-93
2022/01/10 02:26:00;;;;;;;31.30;12.37;;;3.90;99.90;;;;;;4958536;28;20221;-94
2022/01/10 02:28:26;;;;;;;28.27;13.77;;;4.40;99.90;;;;;;4958391;28;20221;-94
2022/01/10 02:30:56;;;;;;;20.83;11.63;;;4.50;99.90;;;;;;4958847;28;20266;-96
2022/01/10 02:33:28;;;;;;;21.37;12.00;;;4.50;99.90;;;;;;4957600;28;20190;-86
2022/01/10 02:38:23;;;;;;;27.23;12.00;;;4.30;99.90;;;;;;4975229;28;20171;-94
2022/01/10 02:40:50;;;;;;;23.87;11.47;;;4.20;99.90;;;;;;4957896;28;20183;-93
2022/01/10 02:43:16;;;;;;;23.97;11.73;;;4.10;99.90;;;;;;4957505;28;20190;-95
2022/01/10 02:45:42;;;;;;;20.27;10.70;;;4.00;99.90;;;;;;4958043;28;20190;-96
2022/01/10 02:48:09;;;;;;;23.53;11.90;;;4.00;99.90;;;;;;4957539;28;20182;-94
2022/01/10 02:50:35;;;;;;;24.80;12.00;;;4.10;99.90;;;;;;4973891;28;20276;-95
2022/01/10 02:53:01;;;;;;;21.13;11.17;;;4.00;99.90;;;;;;4957499;28;20174;-92
2022/01/10 02:55:26;;;;;;;27.73;12.13;;;4.00;99.90;;;;;;4957784;28;20179;-95
2022/01/10 02:57:52;;;;;;;22.40;11.33;;;3.90;99.90;;;;;;4973396;28;20279;-94
2022/01/10 03:00:21;;;;;;;26.93;12.63;;;4.10;99.90;;;;;;4957909;28;20167;-93
2022/01/10 03:02:52;;;;;;;26.70;12.07;;;4.10;99.90;;;;;;4957715;28;20186;-95
2022/01/10 03:05:19;;;;;;;23.37;11.33;;;4.10;99.90;;;;;;4957724;28;20178;-94
2022/01/10 03:07:47;;;;;;;26.03;12.07;;;4.00;99.90;;;;;;4958334;28;20221;-96
2022/01/10 03:10:13;;;;;;;24.20;11.93;;;4.00;99.90;;;;;;4973187;28;20266;-92
2022/01/10 03:12:40;;;;;;;21.63;11.47;;;3.90;99.90;;;;;;4957232;28;20245;-94
2022/01/10 03:15:07;;;;;;;21.80;11.27;;;3.80;99.90;;;;;;4957262;28;20197;-96
2022/01/10 03:17:34;;;;;;;25.00;12.23;;;3.70;99.90;;;;;;4958411;28;20178;-96
2022/01/10 03:20:00;;;;;;;38.27;19.73;;;3.80;99.90;;;;;;4957833;28;20205;-95
2022/01/10 03:22:26;;;;;;;40.90;23.00;;;4.00;99.90;;;;;;4957885;28;20620;-95
2022/01/10 03:24:53;;;;;;;27.23;13.00;;;4.10;99.90;;;;;;4977612;28;20242;-96
2022/01/10 03:27:19;;;;;;;25.60;14.83;;;4.10;99.90;;;;;;4959155;28;20201;-94
2022/01/10 03:29:45;;;;;;;34.53;20.43;;;3.90;99.90;;;;;;4957314;28;20636;-94
2022/01/10 03:32:11;;;;;;;35.93;18.43;;;3.80;99.90;;;;;;4957266;28;20322;-96
2022/01/10 03:34:37;;;;;;;32.67;18.70;;;3.70;99.90;;;;;;4957031;28;20170;-90
2022/01/10 03:37:04;;;;;;;50.93;36.03;;;3.70;99.90;;;;;;4957479;28;20198;-96
2022/01/10 03:39:31;;;;;;;30.53;18.03;;;3.90;99.90;;;;;;4975434;28;20186;-95
2022/01/10 03:41:56;;;;;;;31.70;16.97;;;4.00;99.90;;;;;;4960849;28;20171;-95
2022/01/10 03:44:23;;;;;;;29.13;16.80;;;3.90;99.90;;;;;;4960600;28;20190;-95
2022/01/10 03:46:49;;;;;;;29.93;16.53;;;3.70;99.90;;;;;;4977986;28;20214;-94
2022/01/10 03:49:15;;;;;;;24.97;14.57;;;3.60;99.90;;;;;;4960613;28;20182;-94
2022/01/10 03:51:41;;;;;;;25.23;14.10;;;3.50;99.90;;;;;;4960608;28;20218;-95
2022/01/10 03:54:07;;;;;;;23.40;12.17;;;3.40;99.90;;;;;;4960599;28;20182;-94
2022/01/10 03:56:32;;;;;;;31.50;11.90;;;3.40;99.90;;;;;;4960559;28;20183;-95
2022/01/10 03:58:59;;;;;;;35.17;16.67;;;3.30;99.90;;;;;;4960860;28;20174;-95
2022/01/10 04:01:25;;;;;;;27.50;14.03;;;3.40;99.90;;;;;;4962585;28;20186;-96
2022/01/10 04:03:52;;;;;;;27.00;12.63;;;3.40;99.90;;;;;;4960819;28;20170;-95
2022/01/10 04:06:18;;;;;;;21.93;10.70;;;3.40;99.90;;;;;;4961350;28;20182;-96
2022/01/10 04:08:43;;;;;;;22.33;10.93;;;3.60;99.90;;;;;;4962254;28;20248;-94
2022/01/10 04:11:09;;;;;;;23.03;11.83;;;3.60;99.90;;;;;;4961259;28;20233;-96
2022/01/10 04:13:35;;;;;;;22.27;11.33;;;3.50;99.90;;;;;;4961653;28;20175;-95
2022/01/10 04:16:01;;;;;;;21.60;11.50;;;3.50;99.90;;;;;;4961467;28;20690;-90
2022/01/10 04:18:27;;;;;;;22.00;11.67;;;3.60;99.90;;;;;;4961628;28;20178;-96
2022/01/10 04:20:53;;;;;;;19.83;11.43;;;3.70;99.90;;;;;;4961280;28;20351;-96
2022/01/10 04:23:19;;;;;;;31.30;14.93;;;3.60;99.90;;;;;;4961158;28;20210;-96
2022/01/10 04:25:45;;;;;;;27.50;12.90;;;3.80;99.90;;;;;;4960872;28;20175;-94
2022/01/10 04:28:11;;;;;;;33.00;18.87;;;3.90;99.90;;;;;;4960186;28;20182;-95
2022/01/10 04:30:39;;;;;;;26.23;16.77;;;4.00;99.90;;;;;;4961021;28;20210;-96
2022/01/10 04:33:05;;;;;;;26.80;13.70;;;4.10;99.90;;;;;;4960234;28;20206;-95
2022/01/10 04:35:31;;;;;;;25.40;13.67;;;3.90;99.90;;;;;;4961250;28;20214;-96
2022/01/10 04:37:57;;;;;;;28.43;13.87;;;3.80;99.90;;;;;;4960041;28;20583;-95
2022/01/10 04:40:25;;;;;;;23.43;13.17;;;3.70;99.90;;;;;;4960466;28;20183;-95
2022/01/10 04:42:51;;;;;;;30.83;12.67;;;3.70;99.90;;;;;;4960385;28;20183;-94
2022/01/10 04:45:17;;;;;;;21.17;11.87;;;3.60;99.90;;;;;;4977620;28;20174;-96
2022/01/10 04:47:43;;;;;;;19.43;11.50;;;3.50;99.90;;;;;;4960606;28;20277;-95
2022/01/10 04:52:52;;;;;;;24.60;12.07;;;3.30;99.90;;;;;;4978840;28;20175;-96
2022/01/10 04:55:19;;;;;;;27.03;12.43;;;3.50;99.90;;;;;;4960120;28;20197;-95
2022/01/10 04:57:45;;;;;;;24.17;11.47;;;3.50;99.90;;;;;;4959796;28;20183;-93
2022/01/10 05:00:14;;;;;;;22.67;11.17;;;3.50;99.90;;;;;;4959456;28;20647;-95
2022/01/10 05:02:43;;;;;;;22.90;12.03;;;3.40;99.90;;;;;;4959507;28;20182;-94
2022/01/10 05:05:09;;;;;;;21.50;11.53;;;3.30;99.90;;;;;;4959283;28;20638;-94
2022/01/10 05:07:35;;;;;;;25.73;10.90;;;3.30;99.90;;;;;;4976302;28;20182;-94
2022/01/10 05:10:01;;;;;;;22.17;12.03;;;3.30;99.90;;;;;;4959534;28;20205;-95
2022/01/10 05:12:28;;;;;;;25.20;11.47;;;3.40;99.90;;;;;;4975914;28;20222;-96
2022/01/10 05:14:55;;;;;;;21.47;10.67;;;3.30;99.90;;;;;;4959770;28;20181;-96
2022/01/10 05:17:22;;;;;;;26.43;11.53;;;3.40;99.90;;;;;;4959164;28;20310;-95
2022/01/10 05:19:48;;;;;;;25.80;11.23;;;3.50;99.90;;;;;;4976897;28;20595;-96
2022/01/10 05:22:14;;;;;;;21.73;11.53;;;3.60;99.90;;;;;;4959146;28;20178;-91
2022/01/10 05:24:40;;;;;;;23.63;11.33;;;3.80;99.90;;;;;;4959163;28;20524;-95
2022/01/10 05:27:05;;;;;;;23.33;11.87;;;3.70;99.90;;;;;;4959102;28;20175;-91
2022/01/10 05:29:31;;;;;;;24.83;11.43;;;3.60;99.90;;;;;;4959156;28;20632;-93
2022/01/10 05:31:57;;;;;;;23.47;11.30;;;3.70;99.90;;;;;;4958603;28;20210;-95
2022/01/10 05:34:23;;;;;;;28.03;12.60;;;3.80;99.90;;;;;;4958978;28;20270;-94
2022/01/10 05:36:49;;;;;;;25.20;12.57;;;3.80;99.90;;;;;;4959375;28;20186;-96
2022/01/10 05:39:14;;;;;;;26.00;12.13;;;4.00;99.90;;;;;;4959548;28;20182;-96
2022/01/10 05:41:40;;;;;;;25.90;13.27;;;4.00;99.90;;;;;;4959367;28;20186;-95
2022/01/10 05:44:06;;;;;;;29.80;12.67;;;4.10;99.90;;;;;;4958701;28;20182;-94
2022/01/10 05:46:35;;;;;;;23.63;12.03;;;3.90;99.90;;;;;;4959415;28;20201;-96
2022/01/10 05:49:02;;;;;;;24.77;12.30;;;3.90;99.90;;;;;;4976464;28;20182;-96
2022/01/10 05:51:32;;;;;;;31.77;13.07;;;3.80;99.90;;;;;;4958480;28;20226;-96
2022/01/10 05:53:59;;;;;;;30.13;13.20;;;3.90;99.90;;;;;;4959427;28;20261;-92
2022/01/10 05:56:25;;;;;;;32.03;13.73;;;3.90;99.90;;;;;;4975305;28;20259;-96
2022/01/10 05:58:50;;;;;;;31.57;12.90;;;3.90;99.90;;;;;;4975513;28;20183;-95
2022/01/10 06:01:17;;;;;;;29.47;13.20;;;4.00;99.90;;;;;;4959168;28;20186;-96
2022/01/10 06:03:43;;;;;;;32.00;14.53;;;3.80;99.90;;;;;;4964823;28;20587;-96
2022/01/10 06:06:08;;;;;;;28.97;13.90;;;3.60;99.90;;;;;;4964825;28;20186;-93
2022/01/10 06:08:34;;;;;;;33.30;14.10;;;3.60;99.90;;;;;;4976360;28;20194;-96
2022/01/10 06:11:00;;;;;;;28.97;14.13;;;3.90;99.90;;;;;;4958912;28;20280;-96
2022/01/10 06:13:26;;;;;;;30.57;13.97;;;4.00;99.90;;;;;;4959087;28;20201;-96
2022/01/10 06:15:52;;;;;;;35.87;14.73;;;3.90;99.90;;;;;;4964377;28;20658;-93
2022/01/10 06:18:18;;;;;;;28.63;14.33;;;3.80;99.90;;;;;;4963405;28;20269;-95
2022/01/10 06:20:45;;;;;;;33.23;14.57;;;4.00;99.90;;;;;;4967506;28;20186;-96
2022/01/10 06:23:13;;;;;;;30.97;14.63;;;4.10;99.90;;;;;;4964270;28;20186;-94
2022/01/10 06:25:40;;;;;;;36.00;15.20;;;4.10;99.90;;;;;;4966819;28;20179;-94
2022/01/10 06:28:07;;;;;;;36.87;15.60;;;4.10;99.90;;;;;;4964798;28;20631;-95
2022/01/10 06:30:34;;;;;;;28.23;14.87;;;3.90;99.90;;;;;;4965555;28;20260;-94
2022/01/10 06:33:06;;;;;;;34.13;14.03;;;3.70;99.90;;;;;;4973447;28;20194;-95
2022/01/10 06:35:31;;;;;;;31.70;13.27;;;3.70;99.90;;;;;;4973034;28;20665;-92
2022/01/10 06:37:58;;;;;;;26.67;13.70;;;3.60;99.90;;;;;;4965549;28;20261;-95
2022/01/10 06:40:27;;;;;;;27.63;13.43;;;3.60;99.90;;;;;;4966028;28;20178;-93
2022/01/10 06:42:53;;;;;;;30.33;14.10;;;3.90;99.90;;;;;;4965964;28;20191;-94
2022/01/10 06:45:22;;;;;;;22.67;12.60;;;3.70;99.90;;;;;;4958371;28;20670;-96
2022/01/10 06:47:50;;;;;;;29.53;13.50;;;3.50;99.90;;;;;;4957849;28;20225;-96
2022/01/10 06:50:18;;;;;;;27.27;12.93;;;3.60;99.90;;;;;;4965520;28;20245;-96
2022/01/10 06:52:44;;;;;;;27.33;12.90;;;3.60;99.90;;;;;;4973643;28;20295;-96
2022/01/10 06:55:12;;;;;;;23.27;12.70;;;3.50;99.90;;;;;;4963224;28;20173;-94
2022/01/10 06:57:38;;;;;;;27.50;13.30;;;3.40;99.90;;;;;;4977533;28;20614;-92
2022/01/10 07:00:06;;;;;;;24.47;12.13;;;3.50;99.90;;;;;;4964738;28;20206;-85
2022/01/10 07:02:34;;;;;;;20.50;12.53;;;3.50;99.90;;;;;;4975245;28;20251;-88
2022/01/10 07:05:00;;;;;;;29.43;12.17;;;3.40;99.90;;;;;;4959609;28;20206;-95
2022/01/10 07:07:26;;;;;;;22.70;12.13;;;3.60;99.90;;;;;;4976771;28;20191;-95
2022/01/10 07:09:53;;;;;;;20.50;11.60;;;3.60;99.90;;;;;;4974921;28;20241;-96
2022/01/10 07:12:21;;;;;;;27.80;13.20;;;3.60;99.90;;;;;;4974665;28;20255;-92
2022/01/10 07:14:47;;;;;;;22.27;12.00;;;3.70;99.90;;;;;;4965714;28;20197;-95
2022/01/10 07:17:13;;;;;;;26.37;13.70;;;3.40;99.90;;;;;;4968927;28;20189;-93
2022/01/10 07:19:38;;;;;;;22.70;13.73;;;3.20;99.90;;;;;;4982289;28;20220;-95
2022/01/10 07:22:04;;;;;;;22.43;11.57;;;3.40;99.90;;;;;;4983059;28;20269;-94
2022/01/10 07:24:30;;;;;;;24.03;12.20;;;3.60;99.90;;;;;;4983244;28;20185;-95
2022/01/10 07:26:56;;;;;;;25.10;14.43;;;3.40;99.90;;;;;;4982977;28;20166;-90
2022/01/10 07:29:21;;;;;;;28.27;13.60;;;3.40;99.90;;;;;;4982499;28;20247;-91
2022/01/10 07:31:47;;;;;;;23.90;11.20;;;3.40;99.90;;;;;;4982514;28;20217;-91
2022/01/10 07:34:15;;;;;;;23.83;11.23;;;3.20;99.90;;;;;;4982316;28;20174;-90
2022/01/10 07:36:41;;;;;;;28.73;17.07;;;3.10;99.90;;;;;;4977922;28;20202;-92
2022/01/10 07:39:07;;;;;;;26.13;13.40;;;3.40;99.90;;;;;;4969453;28;20273;-90
2022/01/10 07:41:33;;;;;;;24.30;13.57;;;3.30;99.90;;;;;;4966621;28;20288;-88
2022/01/10 07:43:59;;;;;;;22.67;12.40;;;3.40;99.90;;;;;;4982830;28;20190;-91
2022/01/10 07:46:26;;;;;;;28.40;14.77;;;3.50;99.90;;;;;;4982031;28;20237;-90
2022/01/10 07:48:54;;;;;;;44.47;26.80;;;3.60;99.90;;;;;;4980638;28;20657;-90
2022/01/10 07:51:19;;;;;;;37.13;21.83;;;3.50;99.90;;;;;;4982990;28;20220;-91
2022/01/10 07:53:45;;;;;;;43.73;21.73;;;3.40;99.90;;;;;;4982469;28;20188;-91
2022/01/10 07:56:11;;;;;;;39.47;22.83;;;3.40;99.90;;;;;;4982201;28;20192;-88
2022/01/10 07:58:37;;;;;;;26.67;12.73;;;3.30;99.90;;;;;;4966784;28;20179;-88
2022/01/10 08:01:04;;;;;;;24.40;12.60;;;3.10;99.90;;;;;;4982365;28;20675;-91
2022/01/10 08:03:30;;;;;;;23.37;12.07;;;3.30;99.90;;;;;;4984062;28;20210;-89
2022/01/10 08:05:55;;;;;;;23.17;12.47;;;3.10;99.90;;;;;;4982711;28;20181;-90
2022/01/10 08:08:21;;;;;;;21.37;12.47;;;2.90;99.90;;;;;;4982309;28;20193;-91
2022/01/10 08:10:48;;;;;;;22.00;12.10;;;2.70;99.90;;;;;;4982447;28;20672;-90
2022/01/10 08:13:13;;;;;;;21.40;11.30;;;2.60;99.90;;;;;;4981692;28;20280;-90
2022/01/10 08:15:39;;;;;;;29.30;16.23;;;2.70;99.90;;;;;;5000066;28;20184;-91
2022/01/10 08:18:07;;;;;;;24.17;12.23;;;3.10;99.90;;;;;;4982325;28;20628;-90
2022/01/10 08:20:33;;;;;;;25.90;13.30;;;3.10;99.90;;;;;;4982129;28;20660;-91
2022/01/10 08:22:58;;;;;;;23.07;12.83;;;3.00;99.90;;;;;;4983375;28;20585;-88
2022/01/10 08:25:24;;;;;;;23.30;14.37;;;3.10;99.90;;;;;;4984719;28;20201;-91
2022/01/10 08:27:50;;;;;;;32.63;20.30;;;3.20;99.90;;;;;;4981122;28;20193;-91
2022/01/10 08:30:16;;;;;;;44.37;29.43;;;3.30;99.90;;;;;;4992022;28;20226;-91
2022/01/10 08:32:41;;;;;;;28.73;13.87;;;3.10;99.90;;;;;;4998469;28;20657;-92
2022/01/10 08:35:08;;;;;;;40.07;25.70;;;2.90;99.90;;;;;;4990791;28;20178;-89
2022/01/10 08:37:34;;;;;;;33.57;20.07;;;3.00;99.90;;;;;;4992707;28;20189;-91
2022/01/10 08:40:03;;;;;;;30.57;14.60;;;3.40;99.90;;;;;;4988325;28;20245;-89
2022/01/10 08:42:31;;;;;;;29.60;13.00;;;3.30;99.90;;;;;;4978445;28;20199;-88
2022/01/10 08:44:56;;;;;;;33.07;20.20;;;3.40;99.90;;;;;;4977759;28;20178;-88
2022/01/10 08:47:22;;;;;;;30.77;14.10;;;3.40;99.90;;;;;;4978770;28;20177;-88
2022/01/10 08:49:48;;;;;;;29.83;16.97;;;3.40;99.90;;;;;;4979293;28;20178;-88
2022/01/10 08:52:15;;;;;;;30.47;14.00;;;3.40;99.90;;;;;;4978951;28;20231;-88
2022/01/10 08:54:41;;;;;;;32.37;14.80;;;3.40;99.90;;;;;;4979214;28;20249;-89
2022/01/10 08:57:06;;;;;;;33.27;19.00;;;3.60;99.90;;;;;;4979141;28;20220;-89
2022/01/10 08:59:32;;;;;;;31.33;14.90;;;3.80;99.90;;;;;;4979224;28;20625;-89
2022/01/10 09:01:58;;;;;;;33.63;15.87;;;3.80;99.90;;;;;;4978596;28;20602;-89
2022/01/10 09:04:24;;;;;;;30.57;14.60;;;3.60;99.90;;;;;;4978798;28;20681;-88
2022/01/10 09:06:54;;;;;;;24.80;12.93;;;3.50;99.90;;;;;;4978617;28;20268;-89
2022/01/10 09:09:21;;;;;;;23.93;11.77;;;3.60;99.90;;;;;;4978699;28;20288;-86
2022/01/10 09:11:47;;;;;;;27.30;12.87;;;3.70;99.90;;;;;;4978535;28;20222;-88
2022/01/10 09:14:13;;;;;;;29.43;12.67;;;3.90;99.90;;;;;;4978426;28;20726;-89
2022/01/10 09:16:40;;;;;;;26.50;13.50;;;4.00;99.90;;;;;;4978800;28;20174;-89
2022/01/10 09:19:06;;;;;;;27.43;13.73;;;3.90;99.90;;;;;;4978429;28;20178;-86
2022/01/10 09:21:32;;;;;;;26.10;12.73;;;3.90;99.90;;;;;;4978417;28;20182;-86
2022/01/10 09:23:58;;;;;;;24.13;11.97;;;4.10;99.90;;;;;;4978568;28;20186;-86
2022/01/10 09:26:24;;;;;;;23.83;13.27;;;3.90;99.90;;;;;;4978139;28;20709;-88
2022/01/10 09:28:50;;;;;;;27.17;11.97;;;3.90;99.90;;;;;;4978330;28;20209;-89
2022/01/10 09:31:16;;;;;;;24.67;12.47;;;3.90;99.90;;;;;;4978411;28;20234;-88
2022/01/10 09:33:43;;;;;;;24.90;12.13;;;3.90;99.90;;;;;;4978362;28;20243;-88
2022/01/10 09:36:08;;;;;;;26.77;13.20;;;4.10;99.90;;;;;;4977329;28;20188;-88
2022/01/10 09:38:34;;;;;;;29.63;15.53;;;4.20;99.90;;;;;;4978173;28;20178;-88
2022/01/10 09:41:00;;;;;;;23.23;11.73;;;4.20;99.90;;;;;;4978168;28;20182;-88
2022/01/10 09:43:26;;;;;;;29.43;14.90;;;4.20;99.90;;;;;;4977916;28;20182;-88
2022/01/10 09:45:53;;;;;;;27.70;14.60;;;4.30;99.90;;;;;;4977998;28;20189;-88
2022/01/10 09:48:22;;;;;;;22.33;12.77;;;4.40;99.90;;;;;;4978087;28;20209;-88
2022/01/10 09:50:48;;;;;;;23.40;12.07;;;4.10;99.90;;;;;;4978055;28;20698;-88
2022/01/10 09:53:17;;;;;;;28.53;14.70;;;4.20;99.90;;;;;;4978053;28;20272;-88
2022/01/10 09:55:43;;;;;;;32.33;16.23;;;4.10;99.90;;;;;;4977681;28;20209;-89
2022/01/10 09:58:09;;;;;;;24.03;11.40;;;4.00;99.90;;;;;;4977483;28;20665;-89
2022/01/10 10:00:34;;;;;;;24.47;12.10;;;4.10;99.90;;;;;;4977822;28;20193;-88
2022/01/10 10:03:00;;;;;;;22.37;11.60;;;4.00;99.90;;;;;;4977525;28;20182;-90
2022/01/10 10:05:26;;;;;;;21.93;12.10;;;4.00;99.90;;;;;;4977839;28;20244;-89
2022/01/10 10:07:52;;;;;;;27.03;13.53;;;4.00;99.90;;;;;;4977596;28;20535;-89
2022/01/10 10:10:20;;;;;;;27.67;14.10;;;4.00;99.90;;;;;;4977661;28;20225;-89
2022/01/10 10:12:48;;;;;;;23.07;12.10;;;4.10;99.90;;;;;;4977585;28;20214;-88
2022/01/10 10:15:17;;;;;;;24.53;12.27;;;4.30;99.90;;;;;;4977623;28;20174;-89
2022/01/10 10:17:44;;;;;;;20.90;11.90;;;4.40;99.90;;;;;;4977479;28;20201;-88
2022/01/10 10:20:14;;;;;;;23.93;13.53;;;4.60;99.90;;;;;;4977717;28;20645;-88
2022/01/10 10:22:40;;;;;;;26.57;11.23;;;4.60;99.90;;;;;;4977150;28;20209;-89
2022/01/10 10:25:09;;;;;;;20.53;11.50;;;4.70;99.90;;;;;;4977186;28;20186;-89
2022/01/10 10:27:40;;;;;;;20.80;10.47;;;4.90;99.90;;;;;;4977120;28;20209;-88
2022/01/10 10:30:08;;;;;;;22.90;12.17;;;5.20;99.90;;;;;;4977370;28;20200;-88
2022/01/10 10:32:34;;;;;;;18.80;11.17;;;5.30;99.90;;;;;;4977048;28;20304;-88
2022/01/10 10:35:03;;;;;;;21.10;11.27;;;5.30;99.90;;;;;;4977354;28;20216;-89
2022/01/10 10:37:29;;;;;;;21.43;10.63;;;5.20;99.90;;;;;;4977500;28;20552;-86
2022/01/10 10:39:56;;;;;;;19.30;11.17;;;5.30;99.90;;;;;;4977142;28;20236;-89
2022/01/10 10:42:28;;;;;;;17.13;11.00;;;5.40;99.90;;;;;;4976862;28;20181;-89
2022/01/10 10:44:56;;;;;;;19.43;11.00;;;5.40;99.90;;;;;;4976731;28;20186;-87
2022/01/10 10:47:26;;;;;;;18.97;11.60;;;5.60;99.90;;;;;;4976964;28;20178;-87
2022/01/10 10:49:57;;;;;;;21.00;11.33;;;5.60;99.90;;;;;;4976895;28;20182;-87
2022/01/10 10:52:30;;;;;;;23.20;11.50;;;5.90;99.90;;;;;;4976766;28;20224;-89
2022/01/10 10:54:56;;;;;;;23.17;11.33;;;5.90;99.90;;;;;;4976833;28;20601;-87
2022/01/10 10:57:22;;;;;;;19.37;11.17;;;5.90;99.90;;;;;;4976540;28;20264;-89
2022/01/10 10:59:48;;;;;;;20.17;10.40;;;5.90;99.90;;;;;;4976796;28;20178;-87
2022/01/10 11:02:15;;;;;;;19.57;10.70;;;5.90;99.90;;;;;;4977101;28;20189;-87
2022/01/10 11:04:42;;;;;;;22.27;11.27;;;5.80;99.90;;;;;;4976651;28;20181;-90
2022/01/10 11:07:08;;;;;;;18.17;10.53;;;5.50;99.90;;;;;;4977299;28;20186;-87
2022/01/10 11:09:35;;;;;;;21.63;10.70;;;5.50;99.90;;;;;;4976428;28;20212;-89
2022/01/10 11:12:00;;;;;;;19.93;10.80;;;5.60;99.90;;;;;;4976664;28;20564;-87
2022/01/10 11:14:27;;;;;;;19.53;10.53;;;5.80;99.90;;;;;;4976653;28;20185;-89
2022/01/10 11:16:54;;;;;;;16.80;10.60;;;6.00;99.90;;;;;;4976701;28;20186;-86
2022/01/10 11:19:23;;;;;;;18.23;10.07;;;5.90;99.90;;;;;;4976735;28;20204;-89
2022/01/10 11:22:06;;;;;;;18.47;10.70;;;5.80;99.90;;;;;;4976632;28;20228;-87
2022/01/10 11:24:44;;;;;;;16.20;10.30;;;5.80;99.90;;;;;;4976685;28;20181;-86
2022/01/10 11:27:39;;;;;;;16.37;10.53;;;5.80;99.90;;;;;;4976563;28;20639;-89
2022/01/10 11:30:29;;;;;;;18.33;10.53;;;5.90;99.90;;;;;;4965163;28;20188;-89
2022/01/10 11:33:01;;;;;;;18.83;10.33;;;5.80;99.90;;;;;;4976628;28;20208;-89
2022/01/10 11:35:30;;;;;;;20.87;11.03;;;5.80;99.90;;;;;;4976338;28;20277;-84
2022/01/10 11:37:56;;;;;;;19.10;10.27;;;5.90;99.90;;;;;;4976352;28;20171;-86
2022/01/10 11:40:23;;;;;;;20.33;11.57;;;5.90;99.90;;;;;;4976535;28;20656;-89
2022/01/10 11:42:59;;;;;;;19.77;10.50;;;6.10;99.90;;;;;;4976652;28;20537;-89
2022/01/10 11:45:26;;;;;;;18.00;11.20;;;5.90;99.90;;;;;;4976313;28;20196;-89
2022/01/10 11:48:01;;;;;;;19.87;10.70;;;5.80;99.90;;;;;;4976439;28;20205;-88
2022/01/10 11:50:30;;;;;;;20.10;11.57;;;5.50;99.90;;;;;;4976232;28;20205;-89
2022/01/10 11:52:57;;;;;;;22.50;11.97;;;5.50;99.90;;;;;;4976303;28;20992;-87
2022/01/10 11:55:42;;;;;;;19.67;11.30;;;5.50;99.90;;;;;;4975924;28;20170;-87
2022/01/10 11:58:19;;;;;;;22.77;12.40;;;5.40;99.90;;;;;;4976295;28;20177;-88
2022/01/10 12:00:45;;;;;;;20.93;12.40;;;5.50;99.90;;;;;;4979096;28;20702;-87
2022/01/10 12:03:12;;;;;;;19.10;11.90;;;5.50;99.90;;;;;;4980241;28;20182;-87
2022/01/10 12:05:39;;;;;;;21.17;11.73;;;5.50;99.90;;;;;;4979938;28;20182;-88
2022/01/10 12:08:05;;;;;;;21.50;12.33;;;5.40;99.90;;;;;;4979714;28;20192;-87
2022/01/10 12:10:32;;;;;;;23.83;12.67;;;5.30;99.90;;;;;;4979556;28;20284;-87
2022/01/10 12:13:09;;;;;;;22.50;12.10;;;5.20;99.90;;;;;;4979652;28;20565;-87
2022/01/10 12:15:36;;;;;;;22.50;12.67;;;5.00;99.90;;;;;;4979683;28;20208;-87
2022/01/10 12:18:04;;;;;;;19.63;11.57;;;4.90;99.90;;;;;;4979804;28;20251;-87
2022/01/10 12:20:30;;;;;;;22.47;12.30;;;4.90;99.90;;;;;;4979727;28;20587;-87
2022/01/10 12:22:56;;;;;;;20.60;11.83;;;4.90;99.90;;;;;;4979492;28;20174;-88
2022/01/10 12:25:23;;;;;;;20.80;11.80;;;5.00;99.90;;;;;;4979315;28;20209;-88
2022/01/10 12:27:51;;;;;;;20.50;11.37;;;5.10;99.90;;;;;;4979350;28;20193;-88
2022/01/10 12:30:17;;;;;;;24.27;11.60;;;5.10;99.90;;;;;;4979506;28;20190;-88
2022/01/10 12:32:43;;;;;;;22.50;11.57;;;5.30;99.90;;;;;;4979637;28;20220;-88
2022/01/10 12:35:10;;;;;;;19.10;10.80;;;5.50;99.90;;;;;;4979301;28;20178;-88
2022/01/10 12:37:36;;;;;;;20.00;11.90;;;5.70;99.90;;;;;;4979076;28;20181;-88
2022/01/10 12:40:04;;;;;;;22.03;11.83;;;5.70;99.90;;;;;;4979423;28;20178;-88
2022/01/10 12:42:30;;;;;;;20.27;10.97;;;5.50;99.90;;;;;;4979367;28;20186;-88
2022/01/10 12:44:56;;;;;;;20.13;11.93;;;5.50;99.90;;;;;;4978940;28;20673;-88
2022/01/10 12:47:24;;;;;;;19.40;11.40;;;5.50;99.90;;;;;;4979207;28;20230;-89
2022/01/10 12:49:50;;;;;;;26.50;12.37;;;5.60;99.90;;;;;;4979468;28;20204;-89
2022/01/10 12:52:15;;;;;;;17.00;10.87;;;5.70;99.90;;;;;;4978876;28;20754;-89
2022/01/10 12:54:41;;;;;;;19.13;11.93;;;5.60;99.90;;;;;;4979177;28;20696;-89